Weather at Indian Springs Airport

Public forecast

Using degrees Fahrenheit for public forecast. Weather courtesy of forecast.io.

Closest aviation weather report (METAR) to Indian Springs Airport

Closest report is Tri-Cities Regional TN/VA Airport, 3.7 nm (6.8 km) SSE. Retrieved 2021/06/13 11:29 UTC (0 seconds ago):

KTRI 131129Z 13003KT 1/4SM FG VV001 19/18 A2996

Closest aviation forecast (TAF) to Indian Springs Airport

Closest forecast is Tri-Cities Regional TN/VA Airport, 3.7 nm (6.8 km) SSE. Retrieved 2021/06/13 06:27 UTC (5 hours ago):

TAF KTRI 130524Z 1306/1406 VRB03KT P6SM SCT250 FM130900 00000KT 3SM BR BKN035 FM131000 00000KT 1SM BR BKN010 FM131200 00000KT 2SM BR BKN006 FM131400 00000KT P6SM SCT200 PROB30 1402/1405 6SM TSRA BR BKN050CB